METAR AND TAF INFORMATION
METAR FOR LEGR
ADDS - METARS form results

(1249 UTC 31 March 2020)
Data provider http://aviationweather.gov/metar/data/
 
METAR text: LEGR 311230Z VRB01KT 9999 -RA FEW020 BKN030 OVC040 12/09 Q1007
Conditions at: LEGR (GRANADA AIRPORT , ES) observed 1230 UTC 31 March 2020
Temperature: 12.0°C (54°F)
Dewpoint: 9.0°C (48°F) [RH = 82%]
Pressure (altimeter): 29.73 inches Hg (1007.0 mb)
Winds: variable direction winds at 1 MPH (1 knots; 0.5 m/s)
Visibility: 6 or more miles (10+ km)
Ceiling: 3000 feet AGL
Clouds: few clouds at 2000 feet AGL
broken clouds at 3000 feet AGL
overcast cloud deck at 4000 feet AGL
Weather: -RA  (light rain)

METAR text: LEGR 311200Z VRB01KT 9999 -RA FEW020 BKN044 OVC055 12/09 Q1007
Conditions at: LEGR (GRANADA AIRPORT , ES) observed 1200 UTC 31 March 2020
Temperature: 12.0°C (54°F)
Dewpoint: 9.0°C (48°F) [RH = 82%]
Pressure (altimeter): 29.73 inches Hg (1007.0 mb)
Winds: variable direction winds at 1 MPH (1 knots; 0.5 m/s)
Visibility: 6 or more miles (10+ km)
Ceiling: 4400 feet AGL
Clouds: few clouds at 2000 feet AGL
broken clouds at 4400 feet AGL
overcast cloud deck at 5500 feet AGL
Weather: -RA  (light rain)

Forecast for: LEGR (GRANADA AIRPORT , ES)
Text: TAF LEGR 310800Z 3109/0109 21011KT 9999 SCT030 BKN050 TX17/3115Z TN07/0107Z
Forecast period: 0900 to 1800 UTC 31 March 2020
Forecast type: FROM: standard forecast or significant change
Winds: from the SSW (210 degrees) at 13 MPH (11 knots; 5.7 m/s)
Visibility: 6 or more miles 10+ km)
Ceiling: 5000 feet AGL
Clouds: scattered clouds at 3000 feet AGL
broken clouds at 5000 feet AGL
Weather: no significant weather forecast for this period
Text: PROB40
Forecast period: 0900 UTC 31 March 2020 to 0300 UTC 01 April 2020
Forecast type: TEMPORARY: The following changes expected for less than half the time period
Visibility: 2.49 miles (4.01 km)
Ceiling: 3000 feet AGL
Clouds: scattered clouds at 2000 feet AGL
broken clouds at 3000 feet AGL
Weather: SHRA  (rain showers)
Text: TEMPO 3109/0103 4000 SHRA SCT020TCU BKN030
Forecast period: 1800 UTC 31 March 2020 to 0900 UTC 01 April 2020
Forecast type: BECOMING: Conditions expected to become as follows by 2100 UTC 31 March 2020
Winds: variable direction winds at 3 MPH (3 knots; 1.5 m/s)
Visibility: 6 or more miles 10+ km)
Ceiling: 5000 feet AGL
Clouds: scattered clouds at 3000 feet AGL
broken clouds at 5000 feet AGL
Weather: no significant weather forecast for this period

 AIRPORT MAP

 RUNWAY INFORMATION
Runway 09 Runway length 9514 ft Runway width 148 ft
Runway elevation 1842 ft Runway displaced threshold 0 ft Runway heading 90
Runway 27 Runway length 9514 ft Runway width 148 ft
Runway elevation 1860 ft Runway displaced threshold 0 ft Runway heading 270

 AIRPORT FREQUENCIES
Type GND Name GND Frequency 121.7 MHZ
Type TWR Name TWR Frequency 118.85 MHZ

 AIRPORT NEAR NAVIGATION AIDS
Type VOR-DME Name Granada Frequency 113400 KHZ





Powered by Virtual Airlines Manager